Terminal Aerodrome Forecast
Issued by NWS

Home | Current Version | Previous Version | Graphics & Text | Print | Product List | Glossary On
Versions: 1 2 3 4 5 6 7 8 9 10 11 12 13 14 15 16 17 18 19 20 21 22 23 24 25 26 27 28
000
FTUS43 KABR 280456 AAC
TAFPIR
TAF AMD
KPIR 280456Z 2805/2824 36018KT P6SM -TSRA FEW050 SCT070CB BKN100
     FM280600 28022G31KT P6SM BKN150
     FM281500 31025G35KT P6SM SKC=

USA.gov is the U.S. government's official web portal to all federal, state and local government web resources and services.